Time;durP1;ratioP1;P1;durP2;ratioP2;P2;SDS_P1;SDS_P2;PMS_P1;PMS_P2;Temp;Humidity;BMP_temperature;BMP_pressure;BME280_temperature;BME280_humidity;BME280_pressure;Samples;Min_cycle;Max_cycle;Signal;HPM_P1;HPM_P2
2021/01/23 00:01:27;;;;;;;48.13;27.37;;;;;;;1.17;79.97;97279.71;2260989;79;21134;-80
2021/01/23 00:04:28;;;;;;;55.23;28.30;;;;;;;1.28;81.04;97284.69;2261037;79;21423;-79
2021/01/23 00:07:29;;;;;;;48.73;28.27;;;;;;;1.39;81.28;97272.94;2260711;79;21129;-80
2021/01/23 00:10:30;;;;;;;56.07;30.87;;;;;;;1.51;81.49;97275.78;2260306;79;21078;-80
2021/01/23 00:13:31;;;;;;;59.03;30.67;;;;;;;1.57;81.16;97274.63;2260502;79;21137;-80
2021/01/23 00:16:32;;;;;;;55.00;29.97;;;;;;;1.66;81.39;97275.66;2260776;79;21122;-79
2021/01/23 00:19:33;;;;;;;56.63;29.43;;;;;;;1.70;81.33;97287.34;2259137;79;21125;-80
2021/01/23 00:22:34;;;;;;;53.03;28.57;;;;;;;1.76;81.97;97284.06;2260396;79;21196;-78
2021/01/23 00:25:36;;;;;;;52.10;30.13;;;;;;;1.78;81.42;97280.69;2260548;79;21097;-80
2021/01/23 00:28:39;;;;;;;53.20;29.40;;;;;;;1.85;81.30;97284.25;2260668;79;21137;-80
2021/01/23 00:31:40;;;;;;;51.47;29.37;;;;;;;1.86;81.23;97289.44;2260524;79;21093;-79
2021/01/23 00:34:44;;;;;;;51.30;30.10;;;;;;;1.89;81.16;97297.22;2260579;79;21149;-80
2021/01/23 00:37:47;;;;;;;62.08;33.20;;;;;;;1.95;81.36;97296.89;2260859;79;21090;-80
2021/01/23 00:40:49;;;;;;;57.60;32.77;;;;;;;1.99;81.17;97290.55;2259338;79;21106;-80
2021/01/23 00:43:50;;;;;;;53.77;29.60;;;;;;;2.01;80.72;97282.45;2259643;79;21165;-80
2021/01/23 00:46:55;;;;;;;51.77;28.53;;;;;;;2.01;80.82;97277.30;2260378;79;21130;-79
2021/01/23 00:49:54;;;;;;;52.90;30.53;;;;;;;1.98;80.56;97285.38;2259048;79;21173;-79
2021/01/23 00:52:55;;;;;;;47.53;27.40;;;;;;;1.97;80.54;97281.94;2259832;79;21098;-79
2021/01/23 00:55:56;;;;;;;45.63;28.67;;;;;;;1.96;80.65;97280.61;2259773;79;21128;-79
2021/01/23 00:58:57;;;;;;;46.33;25.83;;;;;;;1.91;80.52;97273.67;2259789;79;21138;-79
2021/01/23 01:01:58;;;;;;;52.73;28.60;;;;;;;1.90;80.92;97264.63;2258083;79;21181;-80
2021/01/23 01:04:59;;;;;;;49.90;28.77;;;;;;;1.85;80.90;97268.81;2259537;79;21137;-80
2021/01/23 01:08:00;;;;;;;52.73;28.30;;;;;;;1.83;81.14;97264.06;2260275;79;21145;-80
2021/01/23 01:11:01;;;;;;;44.90;25.90;;;;;;;1.83;81.16;97267.91;2259608;79;21106;-79
2021/01/23 01:14:02;;;;;;;45.00;26.07;;;;;;;1.81;81.27;97265.73;2259285;79;21443;-79
2021/01/23 01:17:03;;;;;;;46.53;25.73;;;;;;;1.84;81.65;97270.52;2259370;79;21094;-83
2021/01/23 01:20:05;;;;;;;50.63;27.43;;;;;;;1.86;81.53;97268.84;2259618;79;21110;-79
2021/01/23 01:23:06;;;;;;;44.43;25.83;;;;;;;1.94;81.95;97266.84;2259406;79;21162;-79
2021/01/23 01:26:07;;;;;;;45.73;26.73;;;;;;;1.99;81.60;97266.11;2260184;79;21434;-80
2021/01/23 01:29:08;;;;;;;41.60;23.00;;;;;;;2.06;81.72;97263.23;2259524;79;21129;-79
2021/01/23 01:32:09;;;;;;;46.73;24.50;;;;;;;2.13;81.66;97256.08;2259829;79;21098;-79
2021/01/23 01:35:10;;;;;;;41.93;26.50;;;;;;;2.17;81.60;97258.73;2260335;79;21158;-78
2021/01/23 01:38:12;;;;;;;38.60;24.77;;;;;;;2.21;81.58;97253.23;2260266;79;21200;-79
2021/01/23 01:41:13;;;;;;;42.23;23.93;;;;;;;2.24;81.45;97261.02;2259684;79;21126;-78
2021/01/23 01:44:14;;;;;;;48.17;29.63;;;;;;;2.24;81.61;97252.87;2259441;79;21157;-79
2021/01/23 01:47:15;;;;;;;43.03;25.00;;;;;;;2.22;81.46;97245.53;2259038;79;21094;-79
2021/01/23 01:50:16;;;;;;;38.13;23.80;;;;;;;2.23;81.72;97247.69;2259456;79;21118;-78
2021/01/23 01:53:21;;;;;;;38.70;23.63;;;;;;;2.24;81.40;97261.88;2259801;79;21403;-79
2021/01/23 01:56:22;;;;;;;40.10;24.33;;;;;;;2.26;81.42;97260.62;2259131;79;21138;-79
2021/01/23 01:59:23;;;;;;;41.57;24.87;;;;;;;2.32;81.59;97263.73;2260308;79;21133;-79
2021/01/23 02:02:24;;;;;;;39.63;24.03;;;;;;;2.38;81.56;97269.86;2260343;79;21181;-79
2021/01/23 02:05:25;;;;;;;45.27;26.43;;;;;;;2.45;81.52;97260.13;2260498;79;21114;-80
2021/01/23 02:08:26;;;;;;;38.10;23.10;;;;;;;2.52;81.61;97257.23;2260027;79;21142;-80
2021/01/23 02:11:28;;;;;;;35.37;22.80;;;;;;;2.62;81.46;97260.88;2260230;79;21122;-79
2021/01/23 02:14:31;;;;;;;37.20;23.40;;;;;;;2.72;81.52;97264.06;2260583;79;21142;-79
2021/01/23 02:17:33;;;;;;;42.27;24.65;;;;;;;2.80;81.43;97268.92;2260623;79;21113;-80
2021/01/23 02:20:34;;;;;;;43.47;23.83;;;;;;;2.88;81.37;97259.19;2260429;79;21160;-78
2021/01/23 02:23:37;;;;;;;40.30;23.03;;;;;;;2.98;81.36;97259.34;2260093;79;21161;-78
2021/01/23 02:26:38;;;;;;;37.40;23.27;;;;;;;3.06;81.23;97246.14;2260197;79;21137;-78
2021/01/23 02:29:39;;;;;;;36.53;22.87;;;;;;;3.13;81.08;97254.00;2260068;79;21138;-78
2021/01/23 02:32:40;;;;;;;34.60;21.53;;;;;;;3.20;80.84;97254.96;2260090;79;21403;-79
2021/01/23 02:35:41;;;;;;;38.53;22.27;;;;;;;3.24;80.94;97243.84;2260293;79;21142;-79
2021/01/23 02:38:42;;;;;;;33.17;22.67;;;;;;;3.30;80.81;97249.09;2260350;79;21145;-78
2021/01/23 02:41:43;;;;;;;33.40;21.97;;;;;;;3.38;80.82;97242.76;2260287;79;21189;-78
2021/01/23 02:44:45;;;;;;;32.33;21.73;;;;;;;3.44;80.91;97237.69;2263865;79;21153;-79
2021/01/23 02:47:52;;;;;;;37.23;21.57;;;;;;;3.49;80.77;97240.80;2264333;79;21232;-79
2021/01/23 02:50:53;;;;;;;34.53;22.50;;;;;;;3.55;80.65;97241.73;2264187;79;21260;-79
2021/01/23 02:53:54;;;;;;;32.63;20.00;;;;;;;3.57;80.80;97237.04;2264209;79;21117;-78
2021/01/23 02:56:57;;;;;;;30.90;20.80;;;;;;;3.64;80.83;97232.41;2264620;79;21134;-79
2021/01/23 02:59:58;;;;;;;33.70;21.23;;;;;;;3.66;80.59;97232.42;2264357;79;21090;-78
2021/01/23 03:02:59;;;;;;;36.17;20.57;;;;;;;3.67;80.55;97231.16;2264320;79;21300;-78
2021/01/23 03:06:00;;;;;;;30.77;20.20;;;;;;;3.68;80.51;97229.44;2263718;79;21256;-81
2021/01/23 03:09:01;;;;;;;28.20;19.97;;;;;;;3.71;80.55;97226.91;2263858;79;21155;-80
2021/01/23 03:12:02;;;;;;;32.80;20.03;;;;;;;3.71;80.52;97223.89;2264134;79;21411;-80
2021/01/23 03:15:03;;;;;;;28.40;18.80;;;;;;;3.75;80.52;97229.54;2264396;79;21268;-80
2021/01/23 03:18:05;;;;;;;28.87;18.43;;;;;;;3.77;80.71;97226.55;2264360;79;21522;-79
2021/01/23 03:21:08;;;;;;;33.00;21.27;;;;;;;3.79;80.52;97217.12;2264450;79;21102;-78
2021/01/23 03:24:09;;;;;;;37.53;23.77;;;;;;;3.81;80.58;97208.97;2264535;79;21411;-81
2021/01/23 03:27:10;;;;;;;26.50;19.40;;;;;;;3.86;80.92;97203.86;2264653;79;21239;-81
2021/01/23 03:30:11;;;;;;;31.13;18.77;;;;;;;3.88;80.61;97206.03;2264619;79;21168;-79
2021/01/23 03:33:12;;;;;;;28.67;18.87;;;;;;;3.90;80.81;97198.31;2264408;79;21232;-80
2021/01/23 03:36:17;;;;;;;31.60;19.97;;;;;;;3.90;80.69;97197.02;2264869;79;21141;-80
2021/01/23 03:39:18;;;;;;;;;;;;;;;3.89;80.76;97197.44;2267371;79;21119;-79
2021/01/23 03:42:22;;;;;;;30.30;19.97;;;;;;;3.88;80.89;97207.33;2264549;79;20153;-79
2021/01/23 03:45:23;;;;;;;29.57;19.43;;;;;;;3.89;81.08;97194.00;2239313;79;21146;-79
2021/01/23 03:48:24;;;;;;;26.73;18.40;;;;;;;3.92;81.21;97194.90;2238901;79;21136;-79
2021/01/23 03:51:25;;;;;;;31.53;19.43;;;;;;;3.93;81.35;97189.31;2238446;79;21130;-79
2021/01/23 03:54:29;;;;;;;22.20;15.37;;;;;;;3.97;81.24;97188.50;2238710;80;21130;-79
2021/01/23 03:57:30;;;;;;;28.77;18.40;;;;;;;3.97;81.20;97180.75;2238955;80;21229;-79
2021/01/23 04:00:31;;;;;;;25.97;17.30;;;;;;;4.01;81.43;97191.55;2228449;79;21134;-79
2021/01/23 04:03:32;;;;;;;32.37;19.70;;;;;;;4.02;81.19;97183.83;2238741;80;21146;-80
2021/01/23 04:06:33;;;;;;;27.43;19.07;;;;;;;4.00;81.07;97177.78;2238503;80;21203;-80
2021/01/23 04:09:34;;;;;;;28.43;20.67;;;;;;;4.03;81.14;97173.07;2237586;80;21114;-79
2021/01/23 04:12:35;;;;;;;25.47;19.33;;;;;;;4.05;81.34;97168.79;2237583;80;21130;-79
2021/01/23 04:15:36;;;;;;;37.33;24.17;;;;;;;4.06;81.30;97161.48;2238661;79;21118;-78
2021/01/23 04:18:38;;;;;;;36.17;19.37;;;;;;;4.11;81.53;97168.42;2238917;80;21539;-79
2021/01/23 04:21:39;;;;;;;27.70;18.50;;;;;;;4.17;81.64;97166.33;2237892;80;21158;-78
2021/01/23 04:24:40;;;;;;;25.20;18.53;;;;;;;4.18;81.66;97161.61;2237126;80;21293;-80
2021/01/23 04:27:41;;;;;;;25.03;16.40;;;;;;;4.19;81.41;97151.72;2237536;80;21119;-80
2021/01/23 04:30:42;;;;;;;22.33;17.00;;;;;;;4.23;81.60;97142.28;2236869;80;21126;-80
2021/01/23 04:33:43;;;;;;;28.13;18.07;;;;;;;4.25;81.72;97140.58;2237559;80;21154;-81
2021/01/23 04:36:44;;;;;;;27.97;17.47;;;;;;;4.23;81.64;97137.12;2237565;80;21122;-79
2021/01/23 04:39:45;;;;;;;24.90;18.67;;;;;;;4.25;81.69;97134.13;2236802;80;21119;-78
2021/01/23 04:42:46;;;;;;;23.10;17.77;;;;;;;4.26;81.53;97127.68;2236499;79;21178;-80
2021/01/23 04:45:48;;;;;;;28.00;19.57;;;;;;;4.32;81.81;97124.29;2237317;80;21236;-79
2021/01/23 04:48:49;;;;;;;27.63;17.70;;;;;;;4.35;81.60;97123.05;2236718;80;21118;-78
2021/01/23 04:51:50;;;;;;;25.40;18.70;;;;;;;4.36;81.53;97123.49;2236774;79;21130;-79
2021/01/23 04:54:51;;;;;;;23.30;17.73;;;;;;;4.37;81.52;97124.80;2236755;80;21268;-80
2021/01/23 04:57:52;;;;;;;27.17;18.73;;;;;;;4.37;81.64;97119.63;2236364;80;21249;-80
2021/01/23 05:00:53;;;;;;;23.03;18.00;;;;;;;4.38;81.53;97130.41;2236165;80;21237;-79
2021/01/23 05:03:54;;;;;;;25.33;18.73;;;;;;;4.40;81.71;97126.12;2236734;80;21277;-78
2021/01/23 05:06:55;;;;;;;27.97;19.67;;;;;;;4.41;81.87;97117.52;2237313;80;21428;-80
2021/01/23 05:09:56;;;;;;;25.07;19.37;;;;;;;4.42;81.35;97126.99;2237259;80;21247;-79
2021/01/23 05:12:58;;;;;;;28.90;20.20;;;;;;;4.45;81.58;97133.48;2236989;80;21249;-79
2021/01/23 05:15:59;;;;;;;23.67;17.27;;;;;;;4.46;81.34;97130.05;2237803;80;21257;-80
2021/01/23 05:19:01;;;;;;;23.00;20.17;;;;;;;4.45;81.61;97128.31;2237930;80;21063;-79
2021/01/23 05:22:02;;;;;;;30.73;21.43;;;;;;;4.45;81.51;97125.73;2236637;80;21292;-81
2021/01/23 05:25:04;;;;;;;22.80;19.47;;;;;;;4.44;81.50;97114.95;2236426;80;21237;-79
2021/01/23 05:28:06;;;;;;;26.43;20.60;;;;;;;4.48;81.47;97124.46;2236909;80;21238;-79
2021/01/23 05:31:07;;;;;;;31.97;21.27;;;;;;;4.49;81.41;97126.62;2237156;80;21265;-79
2021/01/23 05:34:09;;;;;;;24.90;19.70;;;;;;;4.54;81.79;97115.03;2236980;80;21654;-78
2021/01/23 05:37:10;;;;;;;27.13;21.23;;;;;;;4.58;81.33;97128.41;2237144;80;21114;-79
2021/01/23 05:40:11;;;;;;;24.00;19.20;;;;;;;4.57;81.42;97117.20;2236695;80;21095;-79
2021/01/23 05:43:12;;;;;;;25.63;19.23;;;;;;;4.59;81.16;97118.52;2236777;80;21158;-79
2021/01/23 05:46:13;;;;;;;24.87;20.00;;;;;;;4.58;81.24;97112.48;2237200;80;21138;-79
2021/01/23 05:49:14;;;;;;;27.43;20.03;;;;;;;4.58;81.41;97100.85;2237504;80;21408;-79
2021/01/23 05:52:15;;;;;;;27.70;20.23;;;;;;;4.60;81.15;97100.86;2237382;80;21146;-79
2021/01/23 05:55:16;;;;;;;30.57;20.57;;;;;;;4.58;81.21;97100.85;2237384;80;21134;-79
2021/01/23 05:58:17;;;;;;;26.50;20.33;;;;;;;4.61;81.17;97101.30;2236958;80;21107;-79
2021/01/23 06:01:20;;;;;;;24.73;18.07;;;;;;;4.58;80.91;97107.31;2237157;80;21142;-78
2021/01/23 06:04:21;;;;;;;25.30;19.30;;;;;;;4.61;81.29;97101.30;2237194;80;21135;-80
2021/01/23 06:07:22;;;;;;;27.17;19.83;;;;;;;4.60;81.04;97091.81;2237161;80;21256;-80
2021/01/23 06:10:23;;;;;;;27.77;19.53;;;;;;;4.66;81.08;97095.73;2237335;80;21261;-81
2021/01/23 06:13:24;;;;;;;23.37;18.90;;;;;;;4.67;81.27;97085.84;2237016;80;21471;-80
2021/01/23 06:16:25;;;;;;;27.63;19.60;;;;;;;4.70;81.14;97095.77;2237606;80;21130;-80
2021/01/23 06:19:26;;;;;;;25.50;20.20;;;;;;;4.71;81.01;97089.75;2237713;80;21237;-79
2021/01/23 06:22:27;;;;;;;28.80;19.20;;;;;;;4.73;80.89;97082.00;2237162;80;21527;-79
2021/01/23 06:25:29;;;;;;;22.37;17.23;;;;;;;4.73;80.69;97098.38;2237807;80;21130;-79
2021/01/23 06:28:30;;;;;;;24.50;19.43;;;;;;;4.74;81.00;97087.61;2238466;80;21416;-80
2021/01/23 06:31:31;;;;;;;26.73;18.57;;;;;;;4.75;80.82;97079.86;2238535;80;21142;-80
2021/01/23 06:34:34;;;;;;;26.67;18.37;;;;;;;4.75;80.90;97097.09;2238483;80;21158;-80
2021/01/23 06:37:37;;;;;;;27.30;19.43;;;;;;;4.74;80.76;97086.31;2238153;80;21146;-80
2021/01/23 06:40:38;;;;;;;25.87;18.83;;;;;;;4.74;80.57;97090.19;2238515;80;21376;-79
2021/01/23 06:43:39;;;;;;;20.87;15.93;;;;;;;4.73;80.49;97084.16;2237953;80;21161;-81
2021/01/23 06:46:40;;;;;;;29.70;19.63;;;;;;;4.73;80.61;97081.58;2237370;80;21377;-83
2021/01/23 06:49:41;;;;;;;27.37;19.50;;;;;;;4.73;80.71;97078.98;2237022;80;21715;-82
2021/01/23 06:52:42;;;;;;;25.27;18.67;;;;;;;4.77;80.74;97072.12;2237264;80;21264;-83
2021/01/23 06:55:43;;;;;;;20.93;17.80;;;;;;;4.76;80.60;97063.50;2237248;80;21138;-80
2021/01/23 06:58:44;;;;;;;24.07;19.33;;;;;;;4.79;80.40;97072.99;2237721;80;21130;-81
2021/01/23 07:01:45;;;;;;;27.93;19.07;;;;;;;4.79;80.62;97076.88;2237477;80;21178;-79
2021/01/23 07:04:46;;;;;;;26.90;19.50;;;;;;;4.80;80.43;97079.89;2237164;80;21300;-81
2021/01/23 07:07:48;;;;;;;24.87;19.23;;;;;;;4.80;80.38;97078.17;2236878;80;21162;-80
2021/01/23 07:10:49;;;;;;;22.53;16.87;;;;;;;4.83;80.44;97082.50;2236804;80;21130;-80
2021/01/23 07:13:50;;;;;;;19.53;17.07;;;;;;;4.85;80.26;97078.20;2236823;80;21241;-80
2021/01/23 07:16:51;;;;;;;26.87;19.03;;;;;;;4.85;80.25;97074.75;2236778;80;21440;-82
2021/01/23 07:19:52;;;;;;;28.83;17.53;;;;;;;4.87;80.28;97063.56;2236771;80;21130;-80
2021/01/23 07:22:53;;;;;;;26.37;17.70;;;;;;;4.89;80.15;97069.61;2237090;80;21158;-81
2021/01/23 07:25:54;;;;;;;25.27;16.87;;;;;;;4.89;80.04;97060.56;2237409;80;21087;-79
2021/01/23 07:28:55;;;;;;;28.57;17.70;;;;;;;4.92;80.07;97079.97;2237767;80;21133;-80
2021/01/23 07:31:57;;;;;;;23.97;17.80;;;;;;;4.95;79.92;97065.77;2238002;80;21130;-80
2021/01/23 07:34:59;;;;;;;24.13;17.47;;;;;;;4.98;79.84;97065.78;2237279;80;21121;-78
2021/01/23 07:38:00;;;;;;;23.10;17.27;;;;;;;4.99;79.64;97067.51;2237498;80;21099;-81
2021/01/23 07:41:01;;;;;;;22.50;16.67;;;;;;;5.01;79.64;97058.47;2238434;80;21481;-80
2021/01/23 07:44:02;;;;;;;18.53;14.53;;;;;;;5.03;79.49;97056.75;2237969;80;21177;-79
2021/01/23 07:47:03;;;;;;;24.53;18.27;;;;;;;5.02;79.56;97045.55;2237663;80;21154;-80
2021/01/23 07:50:05;;;;;;;21.70;17.07;;;;;;;5.02;79.44;97045.55;2237146;80;21233;-78
2021/01/23 07:53:06;;;;;;;24.27;18.33;;;;;;;5.03;79.50;97034.77;2237125;80;21345;-80
2021/01/23 07:56:07;;;;;;;22.53;16.23;;;;;;;5.05;79.42;97037.80;2237797;80;21162;-80
2021/01/23 07:59:08;;;;;;;20.33;15.57;;;;;;;5.07;79.40;97039.09;2238003;80;21122;-79
2021/01/23 08:02:09;;;;;;;22.87;18.37;;;;;;;5.07;79.32;97027.03;2238080;80;21193;-80
2021/01/23 08:05:10;;;;;;;24.30;16.63;;;;;;;5.06;79.35;97028.32;2237631;80;21146;-79
2021/01/23 08:08:11;;;;;;;21.83;16.07;;;;;;;5.05;79.26;97036.51;2237292;80;21146;-80
2021/01/23 08:11:13;;;;;;;25.10;17.50;;;;;;;5.07;79.24;97040.39;2237152;80;21468;-81
2021/01/23 08:14:14;;;;;;;23.50;16.70;;;;;;;5.11;79.36;97039.13;2237261;80;21087;-82
2021/01/23 08:17:15;;;;;;;21.57;16.90;;;;;;;5.13;79.45;97024.47;2237540;80;21126;-81
2021/01/23 08:20:16;;;;;;;22.97;16.27;;;;;;;5.13;79.53;97030.94;2237454;80;21249;-80
2021/01/23 08:23:19;;;;;;;23.93;15.07;;;;;;;5.12;79.79;97031.80;2237570;80;21170;-82
2021/01/23 08:26:21;;;;;;;19.07;15.20;;;;;;;5.10;79.77;97015.41;2237598;80;21165;-82
2021/01/23 08:29:23;;;;;;;21.17;15.73;;;;;;;5.05;79.79;97010.65;2237856;80;21373;-81
2021/01/23 08:32:24;;;;;;;24.57;17.40;;;;;;;5.01;80.02;97017.09;2238319;80;21146;-82
2021/01/23 08:35:26;;;;;;;23.17;16.60;;;;;;;4.98;80.11;97015.36;2236784;80;21408;-83
2021/01/23 08:38:27;;;;;;;22.73;16.53;;;;;;;4.96;80.27;97005.87;2238429;80;21162;-81
2021/01/23 08:41:28;;;;;;;24.40;16.93;;;;;;;4.95;80.07;97019.66;2238368;80;21539;-81
2021/01/23 08:44:29;;;;;;;21.33;17.23;;;;;;;4.95;80.09;97027.41;2238300;80;21189;-81
2021/01/23 08:47:31;;;;;;;24.03;17.97;;;;;;;4.93;80.13;97031.28;2238311;80;21246;-81
2021/01/23 08:50:32;;;;;;;24.40;18.50;;;;;;;4.91;79.97;97028.25;2238431;80;21123;-81
2021/01/23 08:53:34;;;;;;;24.90;19.03;;;;;;;4.90;80.08;97018.34;2238209;80;21124;-81
2021/01/23 08:56:37;;;;;;;23.00;17.30;;;;;;;4.90;80.04;97022.22;2238714;80;21204;-83
2021/01/23 08:59:38;;;;;;;22.70;17.03;;;;;;;4.89;79.99;97020.91;2238294;80;21199;-81
2021/01/23 09:02:39;;;;;;;25.60;18.90;;;;;;;4.87;80.17;97014.88;2237466;80;21158;-82
2021/01/23 09:05:40;;;;;;;22.17;17.20;;;;;;;4.86;80.24;97008.84;2237175;80;21134;-81
2021/01/23 09:08:41;;;;;;;25.03;18.77;;;;;;;4.86;80.13;97010.12;2237723;80;21377;-81
2021/01/23 09:11:43;;;;;;;23.77;18.43;;;;;;;4.86;80.20;97011.42;2237753;80;21276;-82
2021/01/23 09:14:44;;;;;;;26.50;17.80;;;;;;;4.86;80.23;97024.34;2237725;80;21146;-81
2021/01/23 09:17:46;;;;;;;29.67;19.13;;;;;;;4.88;80.37;97023.06;2237375;80;21114;-82
2021/01/23 09:20:47;;;;;;;29.30;20.83;;;;;;;4.86;80.41;97020.47;2237909;80;21130;-82
2021/01/23 09:23:48;;;;;;;30.43;20.80;;;;;;;4.85;80.29;97027.79;2237571;80;21305;-81
2021/01/23 09:26:49;;;;;;;27.50;20.53;;;;;;;4.85;80.26;97029.08;2238257;80;21511;-81
2021/01/23 09:29:50;;;;;;;29.33;18.90;;;;;;;4.85;80.48;97015.30;2237974;80;21245;-81
2021/01/23 09:32:51;;;;;;;26.03;18.43;;;;;;;4.85;80.54;97019.17;2238152;80;21253;-83
2021/01/23 09:35:55;;;;;;;26.93;19.27;;;;;;;4.86;80.37;97011.42;2238964;80;21103;-81
2021/01/23 09:38:56;;;;;;;28.25;19.07;;;;;;;4.89;80.22;97020.91;2238360;80;21122;-81
2021/01/23 09:41:57;;;;;;;25.80;18.93;;;;;;;4.90;80.21;97009.72;2238153;80;21277;-81
2021/01/23 09:44:58;;;;;;;22.80;17.70;;;;;;;4.89;80.23;96989.46;2238516;80;21272;-82
2021/01/23 09:48:00;;;;;;;25.47;16.87;;;;;;;4.90;80.03;96988.60;2238282;80;21123;-82
2021/01/23 09:51:01;;;;;;;23.03;17.03;;;;;;;4.93;79.97;96997.66;2238092;80;21134;-80
2021/01/23 09:54:02;;;;;;;22.87;18.50;;;;;;;4.97;79.76;97012.34;2237134;80;21122;-82
2021/01/23 09:57:03;;;;;;;21.13;17.60;;;;;;;5.00;79.56;97016.23;2237453;80;21146;-81
2021/01/23 10:00:05;;;;;;;26.17;18.83;;;;;;;5.06;79.44;97009.79;2238009;80;21166;-81
2021/01/23 10:03:06;;;;;;;26.57;18.47;;;;;;;5.11;79.31;97002.91;2237578;80;21189;-81
2021/01/23 10:06:07;;;;;;;22.47;17.70;;;;;;;5.18;79.21;96992.59;2237544;80;21416;-82
2021/01/23 10:09:08;;;;;;;27.73;19.33;;;;;;;5.22;79.10;96996.95;2237346;80;21530;-81
2021/01/23 10:12:09;;;;;;;25.30;19.07;;;;;;;5.22;78.91;96985.30;2238403;80;21314;-83
2021/01/23 10:15:10;;;;;;;25.90;18.07;;;;;;;5.24;78.93;96990.05;2238182;80;21134;-80
2021/01/23 10:18:11;;;;;;;23.33;17.50;;;;;;;5.25;78.99;96999.11;2236992;80;21256;-81
2021/01/23 10:21:12;;;;;;;24.23;17.83;;;;;;;5.28;78.79;96990.06;2237381;80;21245;-82
2021/01/23 10:24:14;;;;;;;26.97;18.70;;;;;;;5.30;78.61;96988.34;2237787;80;21194;-82
2021/01/23 10:27:15;;;;;;;24.90;19.27;;;;;;;5.33;78.52;96978.44;2237885;80;21150;-82
2021/01/23 10:30:16;;;;;;;27.43;19.20;;;;;;;5.37;78.40;96969.39;2238057;80;21158;-81
2021/01/23 10:33:17;;;;;;;30.07;20.40;;;;;;;5.44;78.31;96976.31;2237718;80;21269;-80
2021/01/23 10:36:18;;;;;;;29.67;20.77;;;;;;;5.50;78.00;96970.72;2237910;80;21158;-81
2021/01/23 10:39:22;;;;;;;32.65;22.50;;;;;;;5.56;78.02;96965.12;2237809;80;21130;-82
2021/01/23 10:42:23;;;;;;;32.80;23.03;;;;;;;5.66;77.71;96970.73;2237560;80;21289;-82
2021/01/23 10:45:24;;;;;;;26.43;19.40;;;;;;;5.82;77.53;96997.94;2237189;80;21154;-81
2021/01/23 10:48:26;;;;;;;34.60;22.47;;;;;;;5.94;76.89;96979.42;2237604;80;21260;-82
2021/01/23 10:51:27;;;;;;;28.93;21.10;;;;;;;6.01;76.98;96997.12;2237302;80;21400;-80
2021/01/23 10:54:28;;;;;;;26.87;18.47;;;;;;;6.13;76.62;96984.20;2237109;80;21102;-83
2021/01/23 10:57:29;;;;;;;31.27;22.53;;;;;;;6.20;76.20;96986.35;2238077;80;21261;-81
2021/01/23 11:00:30;;;;;;;31.70;20.33;;;;;;;6.24;76.34;96981.17;2236968;80;21142;-80
2021/01/23 11:03:31;;;;;;;29.43;20.40;;;;;;;6.29;76.03;96971.66;2235983;80;21324;-80
2021/01/23 11:06:32;;;;;;;33.37;23.57;;;;;;;6.33;75.91;96978.56;2235865;80;21859;-81
2021/01/23 11:09:33;;;;;;;31.20;21.80;;;;;;;6.33;75.80;96972.09;2236243;80;21311;-79
2021/01/23 11:12:35;;;;;;;30.20;20.40;;;;;;;6.37;76.04;96969.92;2236766;80;21253;-81
2021/01/23 11:15:36;;;;;;;25.43;20.13;;;;;;;6.45;75.85;96972.94;2237858;80;21119;-81
2021/01/23 11:18:37;;;;;;;29.70;20.77;;;;;;;6.52;75.56;96970.33;2238383;80;21118;-82
2021/01/23 11:21:39;;;;;;;27.20;21.43;;;;;;;6.61;75.35;96970.30;2237937;80;21404;-82
2021/01/23 11:24:40;;;;;;;28.33;20.43;;;;;;;6.74;75.20;96965.95;2238212;80;21142;-80
2021/01/23 11:27:41;;;;;;;24.90;19.57;;;;;;;6.88;74.94;96971.95;2237342;80;21127;-80
2021/01/23 11:30:42;;;;;;;24.83;19.47;;;;;;;6.99;74.65;96974.53;2238155;80;21515;-80
2021/01/23 11:33:43;;;;;;;24.97;19.97;;;;;;;7.07;74.05;96957.64;2237960;80;21091;-81
2021/01/23 11:36:44;;;;;;;27.87;19.57;;;;;;;7.16;73.59;96954.56;2237887;80;21103;-81
2021/01/23 11:39:45;;;;;;;25.87;18.63;;;;;;;7.22;73.48;96956.27;2238326;80;21253;-80
2021/01/23 11:42:46;;;;;;;23.17;18.07;;;;;;;7.24;72.96;96944.15;2238507;80;21170;-80
2021/01/23 11:45:47;;;;;;;25.13;17.87;;;;;;;7.23;73.12;96948.91;2238187;80;21165;-81
2021/01/23 11:48:49;;;;;;;28.73;19.20;;;;;;;7.24;72.91;96948.04;2238934;80;21475;-82
2021/01/23 11:51:50;;;;;;;24.27;18.07;;;;;;;7.21;73.09;96942.87;2238534;80;21229;-81
2021/01/23 11:54:51;;;;;;;20.73;17.60;;;;;;;7.24;73.14;96949.34;2237841;80;21114;-83
2021/01/23 11:57:52;;;;;;;25.63;19.00;;;;;;;7.28;72.63;96940.23;2238784;80;21507;-80
2021/01/23 12:00:53;;;;;;;24.40;19.10;;;;;;;7.26;72.76;96939.38;2238075;79;21115;-80
2021/01/23 12:03:58;;;;;;;24.77;18.23;;;;;;;7.25;72.41;96936.36;2237852;80;21305;-82
2021/01/23 12:06:57;;;;;;;28.23;17.33;;;;;;;7.28;72.23;96921.20;2237573;79;21146;-82
2021/01/23 12:09:58;;;;;;;24.77;19.07;;;;;;;7.28;72.19;96919.91;2237760;80;21241;-82
2021/01/23 12:12:59;;;;;;;23.10;16.33;;;;;;;7.40;72.31;96911.18;2237864;80;21126;-81
2021/01/23 12:16:00;;;;;;;21.03;17.33;;;;;;;7.50;71.65;96908.52;2238194;80;21373;-80
2021/01/23 12:19:01;;;;;;;24.17;17.80;;;;;;;7.57;71.84;96907.59;2238091;80;21142;-82
2021/01/23 12:22:03;;;;;;;24.43;18.20;;;;;;;7.74;71.04;96893.62;2237894;80;21142;-82
2021/01/23 12:25:04;;;;;;;21.03;17.13;;;;;;;7.62;71.05;96892.84;2237996;80;21245;-80
2021/01/23 12:28:05;;;;;;;24.47;17.37;;;;;;;7.54;71.29;96889.45;2238046;80;21150;-81
2021/01/23 12:31:06;;;;;;;25.13;16.30;;;;;;;7.53;71.54;96894.64;2238073;80;21126;-81
2021/01/23 12:34:07;;;;;;;23.17;17.00;;;;;;;7.48;71.16;96883.44;2237803;80;21236;-81
2021/01/23 12:37:09;;;;;;;25.80;16.13;;;;;;;7.41;71.37;96888.24;2237775;80;21698;-80
2021/01/23 12:40:10;;;;;;;23.80;16.87;;;;;;;7.34;71.31;96883.53;2237582;80;21134;-81
2021/01/23 12:43:11;;;;;;;22.10;16.07;;;;;;;7.28;71.41;96895.25;2237957;80;21551;-82
2021/01/23 12:46:12;;;;;;;26.90;17.43;;;;;;;7.19;71.37;96890.12;2237852;80;21162;-80
2021/01/23 12:49:13;;;;;;;22.33;16.33;;;;;;;7.10;71.40;96889.73;2237645;80;21417;-80
2021/01/23 12:52:15;;;;;;;23.90;17.67;;;;;;;7.06;71.70;96881.98;2237732;80;21253;-80
2021/01/23 12:55:16;;;;;;;21.90;17.10;;;;;;;7.07;71.70;96886.30;2237172;80;21685;-81
2021/01/23 12:58:18;;;;;;;26.63;18.37;;;;;;;7.11;71.71;96894.05;2238153;80;21142;-81
2021/01/23 13:01:20;;;;;;;23.17;16.53;;;;;;;7.13;71.63;96883.67;2237750;80;21272;-81
2021/01/23 13:04:21;;;;;;;25.27;17.60;;;;;;;7.17;71.41;96889.27;2237028;80;22055;-80
2021/01/23 13:07:22;;;;;;;26.40;17.83;;;;;;;7.19;71.48;96882.33;2236591;80;21261;-81
2021/01/23 13:10:24;;;;;;;23.47;16.50;;;;;;;7.23;71.37;96877.55;2237943;80;21471;-81
2021/01/23 13:13:25;;;;;;;26.67;17.50;;;;;;;7.29;71.43;96878.81;2238556;80;21122;-82
2021/01/23 13:16:27;;;;;;;27.33;17.03;;;;;;;7.33;71.23;96880.08;2238679;80;21475;-80
2021/01/23 13:19:28;;;;;;;20.57;15.53;;;;;;;7.35;71.12;96890.45;2238544;80;21231;-82
2021/01/23 13:22:29;;;;;;;25.10;17.83;;;;;;;7.33;71.05;96899.54;2238253;80;21289;-81
2021/01/23 13:25:30;;;;;;;28.87;18.87;;;;;;;7.31;71.05;96895.23;2238456;80;21130;-81
2021/01/23 13:28:31;;;;;;;25.50;18.13;;;;;;;7.27;70.97;96882.71;2238709;80;21130;-80
2021/01/23 13:31:35;;;;;;;22.33;16.87;;;;;;;7.26;71.10;96871.05;2239025;80;21253;-80
2021/01/23 13:34:36;;;;;;;25.72;18.50;;;;;;;9.04;80.12;96867.16;2238953;80;21075;-83
2021/01/23 13:37:37;;;;;;;27.60;17.53;;;;;;;10.06;70.25;96865.59;2239251;80;21126;-82
2021/01/23 13:40:38;;;;;;;28.33;18.33;;;;;;;9.31;66.52;96868.08;2239383;80;21122;-82
2021/01/23 13:43:39;;;;;;;25.50;18.07;;;;;;;8.65;67.71;96864.60;2239413;80;21415;-81
2021/01/23 13:46:42;;;;;;;25.87;17.93;;;;;;;8.18;68.06;96859.03;2238069;79;21437;-81
2021/01/23 13:49:43;;;;;;;27.27;17.57;;;;;;;7.86;68.54;96854.59;2239161;80;21135;-82
2021/01/23 13:52:44;;;;;;;28.27;15.93;;;;;;;7.60;69.08;96842.66;2239686;80;21099;-81
2021/01/23 13:55:47;;;;;;;24.27;17.93;;;;;;;7.41;69.46;96846.28;2239435;80;21130;-82
2021/01/23 13:58:48;;;;;;;24.17;16.63;;;;;;;7.29;69.82;96850.27;2239111;80;21118;-81
2021/01/23 14:01:49;;;;;;;21.63;15.63;;;;;;;7.17;70.03;96852.50;2239101;80;21079;-82